sensor_id;sensor_type;location;lat;lon;timestamp;P1;durP1;ratioP1;P2;durP2;ratioP2
69053;SDS011;56125;52.242;4.756;2022-11-20T00:01:44;3.77;;;2.60;;
69053;SDS011;56125;52.242;4.756;2022-11-20T00:06:45;3.90;;;2.63;;
69053;SDS011;56125;52.242;4.756;2022-11-20T00:11:47;2.73;;;2.20;;
69053;SDS011;56125;52.242;4.756;2022-11-20T00:16:49;3.88;;;2.38;;
69053;SDS011;56125;52.242;4.756;2022-11-20T00:21:50;3.40;;;2.37;;
69053;SDS011;56125;52.242;4.756;2022-11-20T00:26:55;4.88;;;2.75;;
69053;SDS011;56125;52.242;4.756;2022-11-20T00:31:56;4.17;;;2.70;;
69053;SDS011;56125;52.242;4.756;2022-11-20T00:36:57;6.28;;;2.67;;
69053;SDS011;56125;52.242;4.756;2022-11-20T00:41:58;3.53;;;2.50;;
69053;SDS011;56125;52.242;4.756;2022-11-20T00:46:59;4.30;;;2.63;;
69053;SDS011;56125;52.242;4.756;2022-11-20T00:52:00;5.47;;;2.87;;
69053;SDS011;56125;52.242;4.756;2022-11-20T00:57:01;4.47;;;2.60;;
69053;SDS011;56125;52.242;4.756;2022-11-20T01:02:02;3.77;;;2.43;;
69053;SDS011;56125;52.242;4.756;2022-11-20T01:07:03;4.20;;;2.80;;
69053;SDS011;56125;52.242;4.756;2022-11-20T01:12:04;5.50;;;2.90;;
69053;SDS011;56125;52.242;4.756;2022-11-20T01:17:05;5.32;;;2.70;;
69053;SDS011;56125;52.242;4.756;2022-11-20T01:22:06;5.27;;;2.63;;
69053;SDS011;56125;52.242;4.756;2022-11-20T01:27:07;4.30;;;2.60;;
69053;SDS011;56125;52.242;4.756;2022-11-20T01:32:08;4.37;;;2.60;;
69053;SDS011;56125;52.242;4.756;2022-11-20T01:37:09;3.55;;;2.70;;
69053;SDS011;56125;52.242;4.756;2022-11-20T01:42:10;3.23;;;2.40;;
69053;SDS011;56125;52.242;4.756;2022-11-20T01:52:48;3.97;;;2.37;;
69053;SDS011;56125;52.242;4.756;2022-11-20T01:57:53;4.50;;;2.63;;
69053;SDS011;56125;52.242;4.756;2022-11-20T02:02:56;3.50;;;2.40;;
69053;SDS011;56125;52.242;4.756;2022-11-20T02:07:59;4.20;;;2.70;;
69053;SDS011;56125;52.242;4.756;2022-11-20T02:13:00;3.20;;;2.37;;
69053;SDS011;56125;52.242;4.756;2022-11-20T02:18:20;4.55;;;2.47;;
69053;SDS011;56125;52.242;4.756;2022-11-20T02:29:02;4.05;;;2.55;;
69053;SDS011;56125;52.242;4.756;2022-11-20T02:34:04;4.00;;;2.73;;
69053;SDS011;56125;52.242;4.756;2022-11-20T02:39:05;3.42;;;2.65;;
69053;SDS011;56125;52.242;4.756;2022-11-20T02:44:06;3.17;;;2.40;;
69053;SDS011;56125;52.242;4.756;2022-11-20T02:49:07;3.78;;;2.70;;
69053;SDS011;56125;52.242;4.756;2022-11-20T02:54:08;3.43;;;2.40;;
69053;SDS011;56125;52.242;4.756;2022-11-20T02:59:09;3.50;;;2.50;;
69053;SDS011;56125;52.242;4.756;2022-11-20T03:04:10;4.57;;;2.57;;
69053;SDS011;56125;52.242;4.756;2022-11-20T03:09:11;5.07;;;2.47;;
69053;SDS011;56125;52.242;4.756;2022-11-20T03:14:13;3.67;;;2.70;;
69053;SDS011;56125;52.242;4.756;2022-11-20T03:19:14;5.03;;;2.90;;
69053;SDS011;56125;52.242;4.756;2022-11-20T03:24:15;3.97;;;2.70;;
69053;SDS011;56125;52.242;4.756;2022-11-20T03:29:16;5.47;;;2.70;;
69053;SDS011;56125;52.242;4.756;2022-11-20T03:34:17;4.10;;;2.73;;
69053;SDS011;56125;52.242;4.756;2022-11-20T03:39:18;4.15;;;2.67;;
69053;SDS011;56125;52.242;4.756;2022-11-20T03:44:20;4.80;;;2.33;;
69053;SDS011;56125;52.242;4.756;2022-11-20T03:49:22;4.18;;;2.42;;
69053;SDS011;56125;52.242;4.756;2022-11-20T03:54:23;4.17;;;2.50;;
69053;SDS011;56125;52.242;4.756;2022-11-20T03:59:24;4.07;;;2.45;;
69053;SDS011;56125;52.242;4.756;2022-11-20T04:04:25;4.27;;;2.60;;
69053;SDS011;56125;52.242;4.756;2022-11-20T04:09:26;4.38;;;2.72;;
69053;SDS011;56125;52.242;4.756;2022-11-20T04:14:27;3.93;;;2.17;;
69053;SDS011;56125;52.242;4.756;2022-11-20T04:19:28;5.28;;;2.60;;
69053;SDS011;56125;52.242;4.756;2022-11-20T04:24:29;3.37;;;2.60;;
69053;SDS011;56125;52.242;4.756;2022-11-20T04:29:30;3.15;;;2.33;;
69053;SDS011;56125;52.242;4.756;2022-11-20T04:34:31;3.50;;;2.50;;
69053;SDS011;56125;52.242;4.756;2022-11-20T04:39:32;3.08;;;2.50;;
69053;SDS011;56125;52.242;4.756;2022-11-20T04:44:33;3.67;;;2.40;;
69053;SDS011;56125;52.242;4.756;2022-11-20T04:49:34;5.63;;;3.08;;
69053;SDS011;56125;52.242;4.756;2022-11-20T04:54:35;3.43;;;2.67;;
69053;SDS011;56125;52.242;4.756;2022-11-20T04:59:36;4.32;;;2.60;;
69053;SDS011;56125;52.242;4.756;2022-11-20T05:04:37;3.67;;;2.40;;
69053;SDS011;56125;52.242;4.756;2022-11-20T05:09:38;3.80;;;2.58;;
69053;SDS011;56125;52.242;4.756;2022-11-20T05:14:39;2.77;;;2.03;;
69053;SDS011;56125;52.242;4.756;2022-11-20T05:19:40;3.58;;;2.58;;
69053;SDS011;56125;52.242;4.756;2022-11-20T05:24:41;3.63;;;2.60;;
69053;SDS011;56125;52.242;4.756;2022-11-20T05:29:42;3.35;;;2.67;;
69053;SDS011;56125;52.242;4.756;2022-11-20T05:34:43;2.93;;;2.23;;
69053;SDS011;56125;52.242;4.756;2022-11-20T05:39:44;3.85;;;2.63;;
69053;SDS011;56125;52.242;4.756;2022-11-20T05:44:45;3.47;;;2.00;;
69053;SDS011;56125;52.242;4.756;2022-11-20T05:49:46;3.33;;;2.50;;
69053;SDS011;56125;52.242;4.756;2022-11-20T05:54:47;3.83;;;2.60;;
69053;SDS011;56125;52.242;4.756;2022-11-20T05:59:48;2.60;;;2.20;;
69053;SDS011;56125;52.242;4.756;2022-11-20T06:04:49;3.67;;;2.33;;
69053;SDS011;56125;52.242;4.756;2022-11-20T06:09:50;2.97;;;2.30;;
69053;SDS011;56125;52.242;4.756;2022-11-20T06:14:51;3.23;;;2.50;;
69053;SDS011;56125;52.242;4.756;2022-11-20T06:19:52;3.60;;;2.50;;
69053;SDS011;56125;52.242;4.756;2022-11-20T06:24:53;3.87;;;2.43;;
69053;SDS011;56125;52.242;4.756;2022-11-20T06:29:54;3.53;;;2.58;;
69053;SDS011;56125;52.242;4.756;2022-11-20T06:34:55;3.10;;;2.30;;
69053;SDS011;56125;52.242;4.756;2022-11-20T06:39:56;3.13;;;2.42;;
69053;SDS011;56125;52.242;4.756;2022-11-20T06:44:57;4.03;;;2.50;;
69053;SDS011;56125;52.242;4.756;2022-11-20T06:49:58;2.75;;;2.20;;
69053;SDS011;56125;52.242;4.756;2022-11-20T06:54:59;3.67;;;2.13;;
69053;SDS011;56125;52.242;4.756;2022-11-20T07:00:00;3.85;;;2.53;;
69053;SDS011;56125;52.242;4.756;2022-11-20T07:05:01;4.30;;;2.80;;
69053;SDS011;56125;52.242;4.756;2022-11-20T07:10:03;4.93;;;3.00;;
69053;SDS011;56125;52.242;4.756;2022-11-20T07:15:04;4.07;;;2.87;;
69053;SDS011;56125;52.242;4.756;2022-11-20T07:20:06;5.40;;;3.17;;
69053;SDS011;56125;52.242;4.756;2022-11-20T07:25:07;5.33;;;3.03;;
69053;SDS011;56125;52.242;4.756;2022-11-20T07:30:09;5.97;;;3.10;;
69053;SDS011;56125;52.242;4.756;2022-11-20T07:35:11;4.93;;;3.07;;
69053;SDS011;56125;52.242;4.756;2022-11-20T07:40:12;5.40;;;3.17;;
69053;SDS011;56125;52.242;4.756;2022-11-20T07:45:14;5.13;;;3.40;;
69053;SDS011;56125;52.242;4.756;2022-11-20T07:50:15;5.18;;;3.33;;
69053;SDS011;56125;52.242;4.756;2022-11-20T07:55:16;4.57;;;3.20;;
69053;SDS011;56125;52.242;4.756;2022-11-20T08:00:17;4.43;;;3.13;;
69053;SDS011;56125;52.242;4.756;2022-11-20T08:05:18;4.30;;;3.13;;
69053;SDS011;56125;52.242;4.756;2022-11-20T08:10:19;3.35;;;2.75;;
69053;SDS011;56125;52.242;4.756;2022-11-20T08:15:22;4.80;;;3.47;;
69053;SDS011;56125;52.242;4.756;2022-11-20T08:20:23;4.75;;;3.70;;
69053;SDS011;56125;52.242;4.756;2022-11-20T08:25:24;9.53;;;4.97;;
69053;SDS011;56125;52.242;4.756;2022-11-20T08:30:25;6.68;;;4.55;;
69053;SDS011;56125;52.242;4.756;2022-11-20T08:35:27;6.17;;;4.00;;
69053;SDS011;56125;52.242;4.756;2022-11-20T08:40:28;6.40;;;4.07;;
69053;SDS011;56125;52.242;4.756;2022-11-20T08:45:29;5.67;;;4.57;;
69053;SDS011;56125;52.242;4.756;2022-11-20T08:50:30;4.90;;;4.13;;
69053;SDS011;56125;52.242;4.756;2022-11-20T08:55:32;6.70;;;5.33;;
69053;SDS011;56125;52.242;4.756;2022-11-20T09:00:35;6.97;;;5.07;;
69053;SDS011;56125;52.242;4.756;2022-11-20T09:05:36;6.20;;;4.90;;
69053;SDS011;56125;52.242;4.756;2022-11-20T09:10:37;6.05;;;4.85;;
69053;SDS011;56125;52.242;4.756;2022-11-20T09:15:41;6.07;;;5.10;;
69053;SDS011;56125;52.242;4.756;2022-11-20T09:20:42;6.28;;;4.78;;
69053;SDS011;56125;52.242;4.756;2022-11-20T09:25:43;5.33;;;4.23;;
69053;SDS011;56125;52.242;4.756;2022-11-20T09:30:45;6.93;;;4.72;;
69053;SDS011;56125;52.242;4.756;2022-11-20T09:35:46;6.07;;;4.70;;
69053;SDS011;56125;52.242;4.756;2022-11-20T09:40:50;4.93;;;4.43;;
69053;SDS011;56125;52.242;4.756;2022-11-20T09:51:12;8.02;;;5.45;;
69053;SDS011;56125;52.242;4.756;2022-11-20T09:56:34;9.47;;;6.10;;
69053;SDS011;56125;52.242;4.756;2022-11-20T10:01:39;11.07;;;7.70;;
69053;SDS011;56125;52.242;4.756;2022-11-20T10:06:56;6.33;;;5.00;;
69053;SDS011;56125;52.242;4.756;2022-11-20T10:12:25;8.25;;;5.85;;
69053;SDS011;56125;52.242;4.756;2022-11-20T10:17:34;8.33;;;6.57;;
69053;SDS011;56125;52.242;4.756;2022-11-20T10:33:36;8.02;;;4.93;;
69053;SDS011;56125;52.242;4.756;2022-11-20T10:38:58;9.90;;;5.37;;
69053;SDS011;56125;52.242;4.756;2022-11-20T10:44:16;8.80;;;6.18;;
69053;SDS011;56125;52.242;4.756;2022-11-20T10:49:38;8.30;;;5.30;;
69053;SDS011;56125;52.242;4.756;2022-11-20T10:54:50;9.57;;;5.30;;
69053;SDS011;56125;52.242;4.756;2022-11-20T11:00:06;8.13;;;5.67;;
69053;SDS011;56125;52.242;4.756;2022-11-20T11:05:22;6.47;;;4.72;;
69053;SDS011;56125;52.242;4.756;2022-11-20T11:10:39;9.17;;;5.17;;
69053;SDS011;56125;52.242;4.756;2022-11-20T11:15:48;6.53;;;4.75;;
69053;SDS011;56125;52.242;4.756;2022-11-20T11:20:49;9.33;;;4.57;;
69053;SDS011;56125;52.242;4.756;2022-11-20T11:25:56;8.02;;;4.60;;
69053;SDS011;56125;52.242;4.756;2022-11-20T11:30:59;7.93;;;4.60;;
69053;SDS011;56125;52.242;4.756;2022-11-20T11:36:01;5.85;;;4.20;;
69053;SDS011;56125;52.242;4.756;2022-11-20T11:41:05;6.73;;;4.50;;
69053;SDS011;56125;52.242;4.756;2022-11-20T11:46:29;6.72;;;4.43;;
69053;SDS011;56125;52.242;4.756;2022-11-20T11:51:36;7.47;;;4.53;;
69053;SDS011;56125;52.242;4.756;2022-11-20T11:56:58;6.88;;;4.75;;
69053;SDS011;56125;52.242;4.756;2022-11-20T12:02:02;11.23;;;6.40;;
69053;SDS011;56125;52.242;4.756;2022-11-20T12:07:18;5.22;;;4.13;;
69053;SDS011;56125;52.242;4.756;2022-11-20T12:12:30;7.30;;;4.73;;
69053;SDS011;56125;52.242;4.756;2022-11-20T12:17:37;9.63;;;5.22;;
69053;SDS011;56125;52.242;4.756;2022-11-20T12:28:04;9.27;;;5.93;;
69053;SDS011;56125;52.242;4.756;2022-11-20T12:38:35;13.60;;;6.43;;
69053;SDS011;56125;52.242;4.756;2022-11-20T12:49:53;7.68;;;4.78;;
69053;SDS011;56125;52.242;4.756;2022-11-20T12:55:11;9.07;;;5.70;;
69053;SDS011;56125;52.242;4.756;2022-11-20T13:00:24;8.80;;;5.55;;
69053;SDS011;56125;52.242;4.756;2022-11-20T13:05:31;10.33;;;5.87;;
69053;SDS011;56125;52.242;4.756;2022-11-20T13:16:14;10.97;;;6.90;;
69053;SDS011;56125;52.242;4.756;2022-11-20T13:21:34;9.85;;;5.72;;
69053;SDS011;56125;52.242;4.756;2022-11-20T13:26:35;9.50;;;5.47;;
69053;SDS011;56125;52.242;4.756;2022-11-20T13:31:36;10.18;;;5.80;;
69053;SDS011;56125;52.242;4.756;2022-11-20T13:36:53;10.00;;;5.13;;
69053;SDS011;56125;52.242;4.756;2022-11-20T13:41:56;20.05;;;5.32;;
69053;SDS011;56125;52.242;4.756;2022-11-20T13:46:59;41.30;;;7.00;;
69053;SDS011;56125;52.242;4.756;2022-11-20T14:08:19;36.47;;;7.30;;
69053;SDS011;56125;52.242;4.756;2022-11-20T14:13:26;37.95;;;7.57;;
69053;SDS011;56125;52.242;4.756;2022-11-20T14:18:27;43.13;;;10.63;;
69053;SDS011;56125;52.242;4.756;2022-11-20T14:23:29;27.67;;;7.97;;
69053;SDS011;56125;52.242;4.756;2022-11-20T14:28:30;33.03;;;6.67;;
69053;SDS011;56125;52.242;4.756;2022-11-20T14:33:32;28.95;;;7.43;;
69053;SDS011;56125;52.242;4.756;2022-11-20T14:38:34;27.53;;;7.10;;
69053;SDS011;56125;52.242;4.756;2022-11-20T14:43:36;23.85;;;6.80;;
69053;SDS011;56125;52.242;4.756;2022-11-20T14:48:45;19.93;;;6.53;;
69053;SDS011;56125;52.242;4.756;2022-11-20T14:53:48;23.52;;;6.30;;
69053;SDS011;56125;52.242;4.756;2022-11-20T14:58:58;17.77;;;5.87;;
69053;SDS011;56125;52.242;4.756;2022-11-20T15:04:06;18.25;;;5.78;;
69053;SDS011;56125;52.242;4.756;2022-11-20T15:09:14;16.53;;;5.60;;
69053;SDS011;56125;52.242;4.756;2022-11-20T15:14:16;20.65;;;6.32;;
69053;SDS011;56125;52.242;4.756;2022-11-20T15:19:19;18.80;;;5.90;;
69053;SDS011;56125;52.242;4.756;2022-11-20T15:24:21;11.13;;;6.40;;
69053;SDS011;56125;52.242;4.756;2022-11-20T15:29:22;16.50;;;6.07;;
69053;SDS011;56125;52.242;4.756;2022-11-20T15:34:26;13.73;;;5.80;;
69053;SDS011;56125;52.242;4.756;2022-11-20T15:39:27;12.03;;;5.23;;
69053;SDS011;56125;52.242;4.756;2022-11-20T15:44:28;14.40;;;5.80;;
69053;SDS011;56125;52.242;4.756;2022-11-20T15:49:30;12.80;;;4.90;;
69053;SDS011;56125;52.242;4.756;2022-11-20T15:54:31;14.13;;;5.13;;
69053;SDS011;56125;52.242;4.756;2022-11-20T15:59:32;12.07;;;5.47;;
69053;SDS011;56125;52.242;4.756;2022-11-20T16:04:33;11.57;;;5.47;;
69053;SDS011;56125;52.242;4.756;2022-11-20T16:09:34;9.27;;;4.67;;
69053;SDS011;56125;52.242;4.756;2022-11-20T16:14:35;10.40;;;4.65;;
69053;SDS011;56125;52.242;4.756;2022-11-20T16:19:54;7.73;;;4.63;;
69053;SDS011;56125;52.242;4.756;2022-11-20T16:24:55;9.68;;;4.43;;
69053;SDS011;56125;52.242;4.756;2022-11-20T16:29:56;11.13;;;4.00;;
69053;SDS011;56125;52.242;4.756;2022-11-20T16:34:57;8.07;;;5.03;;
69053;SDS011;56125;52.242;4.756;2022-11-20T16:39:58;8.50;;;4.73;;
69053;SDS011;56125;52.242;4.756;2022-11-20T16:44:59;7.18;;;3.97;;
69053;SDS011;56125;52.242;4.756;2022-11-20T16:50:01;8.97;;;4.30;;
69053;SDS011;56125;52.242;4.756;2022-11-20T16:55:03;9.13;;;3.95;;
69053;SDS011;56125;52.242;4.756;2022-11-20T17:00:04;6.57;;;4.13;;
69053;SDS011;56125;52.242;4.756;2022-11-20T17:05:06;6.85;;;3.75;;
69053;SDS011;56125;52.242;4.756;2022-11-20T17:10:07;6.47;;;4.13;;
69053;SDS011;56125;52.242;4.756;2022-11-20T17:15:08;6.70;;;4.45;;
69053;SDS011;56125;52.242;4.756;2022-11-20T17:20:10;6.67;;;4.33;;
69053;SDS011;56125;52.242;4.756;2022-11-20T17:25:11;9.32;;;4.18;;
69053;SDS011;56125;52.242;4.756;2022-11-20T17:30:12;8.37;;;4.03;;
69053;SDS011;56125;52.242;4.756;2022-11-20T17:35:13;6.63;;;4.25;;
69053;SDS011;56125;52.242;4.756;2022-11-20T17:40:14;6.43;;;3.70;;
69053;SDS011;56125;52.242;4.756;2022-11-20T17:45:16;5.43;;;3.25;;
69053;SDS011;56125;52.242;4.756;2022-11-20T17:50:17;6.87;;;4.13;;
69053;SDS011;56125;52.242;4.756;2022-11-20T17:55:18;6.93;;;4.00;;
69053;SDS011;56125;52.242;4.756;2022-11-20T18:00:19;6.60;;;3.90;;
69053;SDS011;56125;52.242;4.756;2022-11-20T18:05:20;6.18;;;3.88;;
69053;SDS011;56125;52.242;4.756;2022-11-20T18:10:21;6.10;;;4.40;;
69053;SDS011;56125;52.242;4.756;2022-11-20T18:15:22;7.00;;;4.32;;
69053;SDS011;56125;52.242;4.756;2022-11-20T18:20:23;6.07;;;4.03;;
69053;SDS011;56125;52.242;4.756;2022-11-20T18:25:24;5.88;;;4.28;;
69053;SDS011;56125;52.242;4.756;2022-11-20T18:30:25;4.47;;;3.27;;
69053;SDS011;56125;52.242;4.756;2022-11-20T18:35:26;6.22;;;3.92;;
69053;SDS011;56125;52.242;4.756;2022-11-20T18:40:27;7.10;;;3.67;;
69053;SDS011;56125;52.242;4.756;2022-11-20T18:45:28;7.43;;;4.55;;
69053;SDS011;56125;52.242;4.756;2022-11-20T18:50:29;12.73;;;7.87;;
69053;SDS011;56125;52.242;4.756;2022-11-20T18:55:30;8.98;;;4.38;;
69053;SDS011;56125;52.242;4.756;2022-11-20T19:00:31;7.03;;;3.73;;
69053;SDS011;56125;52.242;4.756;2022-11-20T19:05:34;5.72;;;3.55;;
69053;SDS011;56125;52.242;4.756;2022-11-20T19:10:36;7.63;;;3.93;;
69053;SDS011;56125;52.242;4.756;2022-11-20T19:15:37;6.78;;;4.65;;
69053;SDS011;56125;52.242;4.756;2022-11-20T19:20:38;5.87;;;4.13;;
69053;SDS011;56125;52.242;4.756;2022-11-20T19:25:39;7.85;;;4.45;;
69053;SDS011;56125;52.242;4.756;2022-11-20T19:30:40;6.17;;;4.13;;
69053;SDS011;56125;52.242;4.756;2022-11-20T19:35:42;5.32;;;4.00;;
69053;SDS011;56125;52.242;4.756;2022-11-20T19:40:43;7.53;;;4.23;;
69053;SDS011;56125;52.242;4.756;2022-11-20T19:45:44;6.50;;;4.05;;
69053;SDS011;56125;52.242;4.756;2022-11-20T19:50:45;6.10;;;4.30;;
69053;SDS011;56125;52.242;4.756;2022-11-20T19:55:56;6.15;;;4.05;;
69053;SDS011;56125;52.242;4.756;2022-11-20T20:01:04;8.17;;;4.07;;
69053;SDS011;56125;52.242;4.756;2022-11-20T20:06:09;7.05;;;4.32;;
69053;SDS011;56125;52.242;4.756;2022-11-20T20:11:16;5.83;;;3.80;;
69053;SDS011;56125;52.242;4.756;2022-11-20T20:16:20;7.05;;;4.45;;
69053;SDS011;56125;52.242;4.756;2022-11-20T20:21:22;6.90;;;4.50;;
69053;SDS011;56125;52.242;4.756;2022-11-20T20:26:24;6.95;;;4.80;;
69053;SDS011;56125;52.242;4.756;2022-11-20T20:31:28;7.80;;;4.80;;
69053;SDS011;56125;52.242;4.756;2022-11-20T20:36:30;5.55;;;3.83;;
69053;SDS011;56125;52.242;4.756;2022-11-20T20:41:31;7.93;;;4.20;;
69053;SDS011;56125;52.242;4.756;2022-11-20T20:46:32;6.78;;;4.60;;
69053;SDS011;56125;52.242;4.756;2022-11-20T20:51:34;6.00;;;4.33;;
69053;SDS011;56125;52.242;4.756;2022-11-20T20:56:35;6.68;;;4.80;;
69053;SDS011;56125;52.242;4.756;2022-11-20T21:01:36;7.57;;;4.57;;
69053;SDS011;56125;52.242;4.756;2022-11-20T21:06:37;7.25;;;4.53;;
69053;SDS011;56125;52.242;4.756;2022-11-20T21:11:38;6.73;;;4.17;;
69053;SDS011;56125;52.242;4.756;2022-11-20T21:16:40;7.00;;;4.38;;
69053;SDS011;56125;52.242;4.756;2022-11-20T21:21:43;6.63;;;4.23;;
69053;SDS011;56125;52.242;4.756;2022-11-20T21:27:00;7.05;;;4.53;;
69053;SDS011;56125;52.242;4.756;2022-11-20T21:32:03;5.80;;;4.40;;
69053;SDS011;56125;52.242;4.756;2022-11-20T21:37:04;6.47;;;4.50;;
69053;SDS011;56125;52.242;4.756;2022-11-20T21:42:05;6.77;;;4.50;;
69053;SDS011;56125;52.242;4.756;2022-11-20T21:47:06;7.65;;;4.60;;
69053;SDS011;56125;52.242;4.756;2022-11-20T21:52:08;6.07;;;4.53;;
69053;SDS011;56125;52.242;4.756;2022-11-20T21:57:09;5.60;;;4.35;;
69053;SDS011;56125;52.242;4.756;2022-11-20T22:02:10;7.60;;;4.33;;
69053;SDS011;56125;52.242;4.756;2022-11-20T22:07:12;6.35;;;4.18;;
69053;SDS011;56125;52.242;4.756;2022-11-20T22:12:13;6.23;;;4.30;;
69053;SDS011;56125;52.242;4.756;2022-11-20T22:17:14;6.38;;;4.50;;
69053;SDS011;56125;52.242;4.756;2022-11-20T22:22:15;5.83;;;4.07;;
69053;SDS011;56125;52.242;4.756;2022-11-20T22:27:16;6.20;;;4.13;;
69053;SDS011;56125;52.242;4.756;2022-11-20T22:32:17;6.30;;;4.50;;
69053;SDS011;56125;52.242;4.756;2022-11-20T22:37:18;6.78;;;3.97;;
69053;SDS011;56125;52.242;4.756;2022-11-20T22:42:19;7.17;;;4.77;;
69053;SDS011;56125;52.242;4.756;2022-11-20T22:47:20;6.32;;;4.47;;
69053;SDS011;56125;52.242;4.756;2022-11-20T22:52:21;5.10;;;3.70;;
69053;SDS011;56125;52.242;4.756;2022-11-20T22:57:22;7.32;;;4.60;;
69053;SDS011;56125;52.242;4.756;2022-11-20T23:02:23;6.17;;;4.23;;
69053;SDS011;56125;52.242;4.756;2022-11-20T23:07:24;7.10;;;4.45;;
69053;SDS011;56125;52.242;4.756;2022-11-20T23:12:25;7.33;;;4.60;;
69053;SDS011;56125;52.242;4.756;2022-11-20T23:17:26;7.00;;;5.03;;
69053;SDS011;56125;52.242;4.756;2022-11-20T23:22:27;7.33;;;4.50;;
69053;SDS011;56125;52.242;4.756;2022-11-20T23:27:28;5.97;;;4.53;;
69053;SDS011;56125;52.242;4.756;2022-11-20T23:32:29;6.57;;;4.20;;
69053;SDS011;56125;52.242;4.756;2022-11-20T23:37:30;6.43;;;4.30;;
69053;SDS011;56125;52.242;4.756;2022-11-20T23:42:31;8.73;;;5.30;;
69053;SDS011;56125;52.242;4.756;2022-11-20T23:47:32;10.73;;;6.20;;
69053;SDS011;56125;52.242;4.756;2022-11-20T23:52:33;5.87;;;4.10;;
69053;SDS011;56125;52.242;4.756;2022-11-20T23:57:34;7.78;;;4.70;;
